createdAt,value
2018-06-03T00:01:31.050Z,76.40
2018-06-03T00:03:59.056Z,76.47
2018-06-03T00:06:27.065Z,76.47
2018-06-03T00:08:55.072Z,76.74
2018-06-03T00:11:23.058Z,76.03
2018-06-03T00:13:51.055Z,76.04
2018-06-03T00:16:19.046Z,75.71
2018-06-03T00:18:47.049Z,75.05
2018-06-03T00:21:35.630Z,75.19
2018-06-03T00:24:03.636Z,76.25
2018-06-03T00:26:31.897Z,75.82
2018-06-03T00:29:00.186Z,76.05
2018-06-03T00:31:28.451Z,76.74
2018-06-03T00:33:56.742Z,76.51
2018-06-03T00:36:36.830Z,75.87
2018-06-03T00:39:07.816Z,76.10
2018-06-03T00:41:36.090Z,76.17
2018-06-03T00:44:04.362Z,77.00
2018-06-03T00:46:32.641Z,75.88
2018-06-03T00:49:00.930Z,75.79
2018-06-03T00:51:29.205Z,76.09
2018-06-03T00:53:57.510Z,76.58
2018-06-03T00:56:37.707Z,75.32
2018-06-03T00:59:05.984Z,75.89
2018-06-03T01:01:34.247Z,76.89
2018-06-03T01:04:02.530Z,76.35
2018-06-03T01:06:30.811Z,75.85
2018-06-03T01:08:59.086Z,77.17
2018-06-03T01:11:27.365Z,76.30
2018-06-03T01:13:55.638Z,76.27
2018-06-03T01:16:23.925Z,77.15
2018-06-03T01:18:52.193Z,77.13
2018-06-03T01:21:20.471Z,77.16
2018-06-03T01:23:48.741Z,76.97
2018-06-03T01:26:17.018Z,77.36
2018-06-03T01:28:45.287Z,76.60
2018-06-03T01:31:13.573Z,77.12
2018-06-03T01:33:41.840Z,77.48
2018-06-03T01:36:10.116Z,77.42
2018-06-03T01:38:38.390Z,77.74
2018-06-03T01:41:06.657Z,78.37
2018-06-03T01:43:34.934Z,78.26
2018-06-03T01:46:03.205Z,78.62
2018-06-03T01:48:31.494Z,78.37
2018-06-03T01:50:59.777Z,78.55
2018-06-03T01:53:28.050Z,77.94
2018-06-03T01:55:56.321Z,78.00
2018-06-03T01:58:24.599Z,78.26
2018-06-03T02:00:52.875Z,78.57
2018-06-03T02:03:21.153Z,78.04
2018-06-03T02:05:49.418Z,77.56
2018-06-03T02:08:17.694Z,77.86
2018-06-03T02:10:45.982Z,78.49
2018-06-03T02:13:14.268Z,77.76
2018-06-03T02:15:42.538Z,77.99
2018-06-03T02:18:10.810Z,78.05
2018-06-03T02:20:39.085Z,77.36
2018-06-03T02:23:07.379Z,77.87
2018-06-03T02:25:35.662Z,79.35
2018-06-03T02:28:03.940Z,78.72
2018-06-03T02:30:32.221Z,78.71
2018-06-03T02:33:00.494Z,78.93
2018-06-03T02:35:28.774Z,78.27
2018-06-03T02:37:57.078Z,78.60
2018-06-03T02:40:25.322Z,77.91
2018-06-03T02:42:53.594Z,78.57
2018-06-03T02:45:21.873Z,78.42
2018-06-03T02:47:50.154Z,79.44
2018-06-03T02:50:18.442Z,81.39
2018-06-03T02:52:46.718Z,80.87
2018-06-03T02:55:14.990Z,80.58
2018-06-03T02:57:43.274Z,80.32
2018-06-03T03:00:12.059Z,80.16
2018-06-03T03:02:40.342Z,79.67
2018-06-03T03:05:08.606Z,80.76
2018-06-03T03:07:36.894Z,80.67
2018-06-03T03:10:05.166Z,80.76
2018-06-03T03:12:33.441Z,79.68
2018-06-03T03:15:01.714Z,79.93
2018-06-03T03:17:29.987Z,80.08
2018-06-03T03:19:58.270Z,79.66
2018-06-03T03:22:26.540Z,79.85
2018-06-03T03:24:54.814Z,79.22
2018-06-03T03:27:23.099Z,79.66
2018-06-03T03:29:51.384Z,79.80
2018-06-03T03:32:19.670Z,79.62
2018-06-03T03:34:47.941Z,79.17
2018-06-03T03:37:16.234Z,78.74
2018-06-03T03:39:44.526Z,78.98
2018-06-03T03:42:12.814Z,79.27
2018-06-03T03:44:41.097Z,78.80
2018-06-03T03:47:09.386Z,79.20
2018-06-03T03:49:37.677Z,80.14
2018-06-03T03:52:05.954Z,80.32
2018-06-03T03:54:34.246Z,80.45
2018-06-03T03:57:02.522Z,79.57
2018-06-03T03:59:30.846Z,79.80
2018-06-03T04:01:59.126Z,79.72
2018-06-03T04:04:27.410Z,79.77
2018-06-03T04:06:55.704Z,80.56
2018-06-03T04:09:23.973Z,80.12
2018-06-03T04:11:52.263Z,80.29
2018-06-03T04:14:20.546Z,80.48
2018-06-03T04:16:48.829Z,80.75
2018-06-03T04:19:18.046Z,81.69
2018-06-03T04:21:46.358Z,80.52
2018-06-03T04:24:14.625Z,80.96
2018-06-03T04:26:42.914Z,81.71
2018-06-03T04:29:11.210Z,81.42
2018-06-03T04:31:39.490Z,81.25
2018-06-03T04:34:07.774Z,81.96
2018-06-03T04:36:36.058Z,81.63
2018-06-03T04:39:04.350Z,81.43
2018-06-03T04:41:32.630Z,81.14
2018-06-03T04:44:00.964Z,81.34
2018-06-03T04:46:29.243Z,81.75
2018-06-03T04:48:57.524Z,83.19
2018-06-03T04:51:25.818Z,83.04
2018-06-03T04:53:54.102Z,83.64
2018-06-03T04:56:22.390Z,82.49
2018-06-03T04:58:50.674Z,81.65
2018-06-03T05:01:18.978Z,81.83
2018-06-03T05:03:47.251Z,82.30
2018-06-03T05:06:15.553Z,82.75
2018-06-03T05:08:43.832Z,84.61
2018-06-03T05:11:12.109Z,82.75
2018-06-03T05:13:40.401Z,81.79
2018-06-03T05:16:08.684Z,81.05
2018-06-03T05:18:36.978Z,81.57
2018-06-03T05:21:05.266Z,82.03
2018-06-03T05:23:33.563Z,82.64
2018-06-03T05:26:01.851Z,82.02
2018-06-03T05:28:30.147Z,82.47
2018-06-03T05:30:58.434Z,81.77
2018-06-03T05:33:26.728Z,82.11
2018-06-03T05:35:55.006Z,83.07
2018-06-03T05:38:23.297Z,82.89
2018-06-03T05:40:51.578Z,82.65
2018-06-03T05:43:19.885Z,83.59
2018-06-03T05:45:48.180Z,81.91
2018-06-03T05:48:16.460Z,80.68
2018-06-03T05:50:44.748Z,81.45
2018-06-03T05:53:13.029Z,80.84
2018-06-03T05:55:41.321Z,79.70
2018-06-03T05:58:09.602Z,79.67
2018-06-03T06:00:37.893Z,79.08
2018-06-03T06:03:06.174Z,78.32
2018-06-03T06:05:34.499Z,77.93
2018-06-03T06:08:02.773Z,77.79
2018-06-03T06:10:31.075Z,76.66
2018-06-03T06:12:59.374Z,76.42
2018-06-03T06:15:27.706Z,76.82
2018-06-03T06:17:55.986Z,76.60
2018-06-03T06:20:24.265Z,76.23
2018-06-03T06:22:52.566Z,75.34
2018-06-03T06:25:20.849Z,75.32
2018-06-03T06:27:49.145Z,75.12
2018-06-03T06:30:17.424Z,74.30
2018-06-03T06:32:45.714Z,74.30
2018-06-03T06:35:14.016Z,73.48
2018-06-03T06:37:42.301Z,73.21
2018-06-03T06:40:10.601Z,72.41
2018-06-03T06:42:38.899Z,72.05
2018-06-03T06:45:07.195Z,72.14
2018-06-03T06:47:35.481Z,71.37
2018-06-03T06:50:03.784Z,71.00
2018-06-03T06:52:32.058Z,72.19
2018-06-03T06:55:00.354Z,71.48
2018-06-03T06:57:29.551Z,71.69
2018-06-03T06:59:57.847Z,68.14
2018-06-03T07:02:26.131Z,68.30
2018-06-03T07:04:54.430Z,67.57
2018-06-03T07:07:22.746Z,69.40
2018-06-03T07:09:51.030Z,67.34
2018-06-03T07:12:19.317Z,66.57
2018-06-03T07:14:47.619Z,66.64
2018-06-03T07:17:15.897Z,65.04
2018-06-03T07:19:44.202Z,65.19
2018-06-03T07:22:12.494Z,63.74
2018-06-03T07:24:40.771Z,61.37
2018-06-03T07:27:09.062Z,59.61
2018-06-03T07:29:37.345Z,60.58
2018-06-03T07:32:05.693Z,61.28
2018-06-03T07:34:33.923Z,60.73
2018-06-03T07:37:02.214Z,59.38
2018-06-03T07:39:30.510Z,61.84
2018-06-03T07:41:58.826Z,59.40
2018-06-03T07:44:27.111Z,60.33
2018-06-03T07:46:55.415Z,64.79
2018-06-03T07:49:23.689Z,63.36
2018-06-03T07:51:51.986Z,61.44
2018-06-03T07:54:20.273Z,57.17
2018-06-03T07:56:48.554Z,56.14
2018-06-03T07:59:16.844Z,55.41
2018-06-03T08:01:45.138Z,55.93
2018-06-03T08:04:13.419Z,54.74
2018-06-03T08:06:41.703Z,55.69
2018-06-03T08:09:09.993Z,55.81
2018-06-03T08:11:38.274Z,53.29
2018-06-03T08:14:06.571Z,52.79
2018-06-03T08:16:34.858Z,51.67
2018-06-03T08:19:03.154Z,50.27
2018-06-03T08:21:31.438Z,53.75
2018-06-03T08:23:59.745Z,49.49
2018-06-03T08:26:28.022Z,52.75
2018-06-03T08:28:56.318Z,52.85
2018-06-03T08:31:24.618Z,52.70
2018-06-03T08:33:52.902Z,52.98
2018-06-03T08:36:21.202Z,53.22
2018-06-03T08:38:49.488Z,52.39
2018-06-03T08:41:17.794Z,50.04
2018-06-03T08:43:46.075Z,50.54
2018-06-03T08:46:14.365Z,51.52
2018-06-03T08:48:42.658Z,53.15
2018-06-03T08:51:10.952Z,50.43
2018-06-03T08:53:39.238Z,50.07
2018-06-03T08:56:07.545Z,51.89
2018-06-03T08:58:35.845Z,52.37
2018-06-03T09:01:04.760Z,51.69
2018-06-03T09:03:33.073Z,53.44
2018-06-03T09:06:01.341Z,53.18
2018-06-03T09:08:29.630Z,52.71
2018-06-03T09:10:57.910Z,54.14
2018-06-03T09:13:26.202Z,54.64
2018-06-03T09:15:54.486Z,53.43
2018-06-03T09:18:22.782Z,52.48
2018-06-03T09:20:51.074Z,51.33
2018-06-03T09:23:19.376Z,51.73
2018-06-03T09:25:47.650Z,52.09
2018-06-03T09:28:16.213Z,47.62
2018-06-03T09:30:44.493Z,49.19
2018-06-03T09:33:12.774Z,50.64
2018-06-03T09:35:41.071Z,49.57
2018-06-03T09:38:09.353Z,49.77
2018-06-03T09:40:37.642Z,48.43
2018-06-03T09:43:05.925Z,49.05
2018-06-03T09:45:34.228Z,50.33
2018-06-03T09:48:02.522Z,49.07
2018-06-03T09:50:30.802Z,49.29
2018-06-03T09:52:59.086Z,49.55
2018-06-03T09:55:27.374Z,50.44
2018-06-03T09:57:55.658Z,50.13
2018-06-03T10:00:23.947Z,50.63
2018-06-03T10:02:52.234Z,50.29
2018-06-03T10:05:20.514Z,49.22
2018-06-03T10:07:48.810Z,48.77
2018-06-03T10:10:17.116Z,48.96
2018-06-03T10:12:45.386Z,48.55
2018-06-03T10:15:13.667Z,48.53
2018-06-03T10:17:41.965Z,49.28
2018-06-03T10:20:10.243Z,47.50
2018-06-03T10:22:38.542Z,47.84
2018-06-03T10:25:06.843Z,48.45
2018-06-03T10:27:35.126Z,48.04
2018-06-03T10:30:03.432Z,48.66
2018-06-03T10:32:31.710Z,47.98
2018-06-03T10:35:00.006Z,48.28
2018-06-03T10:37:28.285Z,46.18
2018-06-03T10:39:56.595Z,47.23
2018-06-03T10:42:24.863Z,46.49
2018-06-03T10:44:53.962Z,48.37
2018-06-03T10:47:22.251Z,48.28
2018-06-03T10:49:50.547Z,47.73
2018-06-03T10:52:19.706Z,47.85
2018-06-03T10:54:47.991Z,46.80
2018-06-03T10:57:16.279Z,47.39
2018-06-03T10:59:44.610Z,47.20
2018-06-03T11:02:12.864Z,46.02
2018-06-03T11:04:41.142Z,46.99
2018-06-03T11:07:09.430Z,46.25
2018-06-03T11:09:37.752Z,47.46
2018-06-03T11:12:06.040Z,46.96
2018-06-03T11:14:34.325Z,44.89
2018-06-03T11:17:02.649Z,44.32
2018-06-03T11:19:30.913Z,44.08
2018-06-03T11:21:59.185Z,45.51
2018-06-03T11:24:27.477Z,45.82
2018-06-03T11:26:55.754Z,44.83
2018-06-03T11:29:24.041Z,45.06
2018-06-03T11:31:52.327Z,43.28
2018-06-03T11:34:20.614Z,45.22
2018-06-03T11:36:48.899Z,44.54
2018-06-03T11:39:17.210Z,44.24
2018-06-03T11:41:45.495Z,44.57
2018-06-03T11:44:13.778Z,42.51
2018-06-03T11:46:42.063Z,42.93
2018-06-03T11:49:10.345Z,41.64
2018-06-03T11:51:38.647Z,42.82
2018-06-03T11:54:06.931Z,43.94
2018-06-03T11:56:46.954Z,44.48
2018-06-03T11:59:15.241Z,43.20
2018-06-03T12:01:43.510Z,43.02
2018-06-03T12:04:11.783Z,42.50
2018-06-03T12:06:40.066Z,43.22
2018-06-03T12:09:08.352Z,41.54
2018-06-03T12:11:36.637Z,42.51
2018-06-03T12:14:04.915Z,41.29
2018-06-03T12:16:33.203Z,41.39
2018-06-03T12:19:01.483Z,40.88
2018-06-03T12:21:29.771Z,40.98
2018-06-03T12:23:58.043Z,40.37
2018-06-03T12:26:26.326Z,41.18
2018-06-03T12:28:54.611Z,41.26
2018-06-03T12:31:22.901Z,39.38
2018-06-03T12:33:51.175Z,39.73
2018-06-03T12:36:19.458Z,40.93
2018-06-03T12:38:47.731Z,39.45
2018-06-03T12:41:16.014Z,39.52
2018-06-03T12:43:44.289Z,39.12
2018-06-03T12:46:12.562Z,38.46
2018-06-03T12:48:40.846Z,38.65
2018-06-03T12:51:09.131Z,38.96
2018-06-03T12:53:37.410Z,39.52
2018-06-03T12:56:05.686Z,40.06
2018-06-03T12:58:33.986Z,39.50
2018-06-03T13:01:02.262Z,41.30
2018-06-03T13:03:30.598Z,41.57
2018-06-03T13:05:58.880Z,41.53
2018-06-03T13:08:27.191Z,41.73
2018-06-03T13:10:55.458Z,42.32
2018-06-03T13:13:23.737Z,42.02
2018-06-03T13:15:52.022Z,43.11
2018-06-03T13:18:20.331Z,42.00
2018-06-03T13:20:48.582Z,42.99
2018-06-03T13:23:16.867Z,43.90
2018-06-03T13:25:45.141Z,42.12
2018-06-03T13:28:13.418Z,42.51
2018-06-03T13:30:42.070Z,43.15
2018-06-03T13:33:10.342Z,44.71
2018-06-03T13:35:38.630Z,46.04
2018-06-03T13:38:06.908Z,44.28
2018-06-03T13:40:35.202Z,44.44
2018-06-03T13:43:03.482Z,45.48
2018-06-03T13:45:31.779Z,45.01
2018-06-03T13:48:00.062Z,44.63
2018-06-03T13:50:28.346Z,45.50
2018-06-03T13:52:56.652Z,44.26
2018-06-03T13:55:24.932Z,43.36
2018-06-03T13:57:53.222Z,43.38
2018-06-03T14:00:21.515Z,43.76
2018-06-03T14:02:49.814Z,44.58
2018-06-03T14:05:18.099Z,46.46
2018-06-03T14:07:46.395Z,47.60
2018-06-03T14:10:14.678Z,47.17
2018-06-03T14:12:42.966Z,44.59
2018-06-03T14:15:11.246Z,43.94
2018-06-03T14:17:39.546Z,43.83
2018-06-03T14:20:07.825Z,44.91
2018-06-03T14:22:36.110Z,44.92
2018-06-03T14:25:04.409Z,44.54
2018-06-03T14:27:32.743Z,44.57
2018-06-03T14:30:01.009Z,44.76
2018-06-03T14:32:29.298Z,43.84
2018-06-03T14:34:57.585Z,43.98
2018-06-03T14:37:25.862Z,42.40
2018-06-03T14:39:54.169Z,43.76
2018-06-03T14:42:55.380Z,43.26
2018-06-03T14:45:24.515Z,42.34
2018-06-03T14:47:53.632Z,40.76
2018-06-03T14:50:22.765Z,42.00
2018-06-03T14:52:51.870Z,42.81
2018-06-03T14:55:21.025Z,44.61
2018-06-03T14:57:50.136Z,43.61
2018-06-03T15:00:19.243Z,44.28
2018-06-03T15:02:48.366Z,46.21
2018-06-03T15:05:17.476Z,45.98
2018-06-03T15:07:46.606Z,48.07
2018-06-03T15:10:15.696Z,48.26
2018-06-03T15:12:44.830Z,47.47
2018-06-03T15:15:14.046Z,47.99
2018-06-03T15:17:43.164Z,47.50
2018-06-03T15:20:12.306Z,47.97
2018-06-03T15:22:41.438Z,46.70
2018-06-03T15:25:10.558Z,46.31
2018-06-03T15:27:39.722Z,46.29
2018-06-03T15:30:08.858Z,46.44
2018-06-03T15:32:38.023Z,45.27
2018-06-03T15:35:07.164Z,47.32
2018-06-03T15:37:36.278Z,44.66
2018-06-03T15:40:05.461Z,45.30
2018-06-03T15:42:34.626Z,44.81
2018-06-03T15:45:03.790Z,45.68
2018-06-03T15:47:32.967Z,45.00
2018-06-03T15:50:02.103Z,46.42
2018-06-03T15:52:31.222Z,47.06
2018-06-03T15:55:00.347Z,47.84
2018-06-03T15:57:29.462Z,46.78
2018-06-03T15:59:58.603Z,46.54
2018-06-03T16:02:27.758Z,46.35
2018-06-03T16:04:56.918Z,48.10
2018-06-03T16:07:25.994Z,46.40
2018-06-03T16:09:55.117Z,46.55
2018-06-03T16:12:24.271Z,48.18
2018-06-03T16:14:53.410Z,47.02
2018-06-03T16:17:22.523Z,45.16
2018-06-03T16:19:51.655Z,44.53
2018-06-03T16:22:20.790Z,43.97
2018-06-03T16:24:49.897Z,45.41
2018-06-03T16:27:19.364Z,46.62
2018-06-03T16:29:48.501Z,46.10
2018-06-03T16:32:17.618Z,47.20
2018-06-03T16:34:46.731Z,44.99
2018-06-03T16:37:15.841Z,44.66
2018-06-03T16:39:44.941Z,45.38
2018-06-03T16:42:14.294Z,45.52
2018-06-03T16:44:43.370Z,46.31
2018-06-03T16:47:12.523Z,45.76
2018-06-03T16:49:41.633Z,46.91
2018-06-03T16:52:10.762Z,46.08
2018-06-03T16:54:39.893Z,46.52
2018-06-03T16:57:09.043Z,45.92
2018-06-03T16:59:38.173Z,45.78
2018-06-03T17:02:07.319Z,45.88
2018-06-03T17:04:36.451Z,46.15
2018-06-03T17:07:05.804Z,45.67
2018-06-03T17:09:34.921Z,45.25
2018-06-03T17:12:04.182Z,46.48
2018-06-03T17:14:33.409Z,46.79
2018-06-03T17:17:02.446Z,47.34
2018-06-03T17:19:31.548Z,46.04
2018-06-03T17:22:00.665Z,46.21
2018-06-03T17:24:29.794Z,46.72
2018-06-03T17:26:58.910Z,47.29
2018-06-03T17:29:28.034Z,47.47
2018-06-03T17:31:57.171Z,48.53
2018-06-03T17:34:26.378Z,48.70
2018-06-03T17:36:55.446Z,47.35
2018-06-03T17:39:24.573Z,47.92
2018-06-03T17:41:53.686Z,47.61
2018-06-03T17:44:22.810Z,48.51
2018-06-03T17:46:51.929Z,47.03
2018-06-03T17:49:21.086Z,47.56
2018-06-03T17:51:50.214Z,47.82
2018-06-03T17:54:19.337Z,47.41
2018-06-03T17:56:48.448Z,47.00
2018-06-03T17:59:17.574Z,47.38
2018-06-03T18:01:46.750Z,48.56
2018-06-03T18:04:15.890Z,48.56
2018-06-03T18:06:45.050Z,47.16
2018-06-03T18:09:14.170Z,47.52
2018-06-03T18:11:43.298Z,49.32
2018-06-03T18:14:12.398Z,49.37
2018-06-03T18:16:41.518Z,49.82
2018-06-03T18:19:10.645Z,50.00
2018-06-03T18:21:39.746Z,51.29
2018-06-03T18:24:08.866Z,51.03
2018-06-03T18:26:38.011Z,51.88
2018-06-03T18:29:07.134Z,51.63
2018-06-03T18:31:36.477Z,51.58
2018-06-03T18:34:05.667Z,51.47
2018-06-03T18:36:34.834Z,52.35
2018-06-03T18:39:05.315Z,51.27
2018-06-03T18:41:34.794Z,51.81
2018-06-03T18:44:03.918Z,51.57
2018-06-03T18:46:33.020Z,52.38
2018-06-03T18:49:02.166Z,52.31
2018-06-03T18:51:31.258Z,53.17
2018-06-03T18:54:00.396Z,53.45
2018-06-03T18:56:29.554Z,52.32
2018-06-03T18:58:58.665Z,52.94
2018-06-03T19:01:27.810Z,53.40
2018-06-03T19:03:56.912Z,53.81
2018-06-03T19:06:26.030Z,53.53
2018-06-03T19:08:55.131Z,53.91
2018-06-03T19:11:24.254Z,53.77
2018-06-03T19:13:53.427Z,54.61
2018-06-03T19:16:22.566Z,54.23
2018-06-03T19:18:51.706Z,54.79
2018-06-03T19:21:20.859Z,54.75
2018-06-03T19:23:49.986Z,55.56
2018-06-03T19:26:19.183Z,56.25
2018-06-03T19:28:48.286Z,56.91
2018-06-03T19:31:17.394Z,56.59
2018-06-03T19:33:46.518Z,57.54
2018-06-03T19:36:15.630Z,57.50
2018-06-03T19:38:44.797Z,57.39
2018-06-03T19:41:13.914Z,58.06
2018-06-03T19:43:43.029Z,57.65
2018-06-03T19:46:12.145Z,58.42
2018-06-03T19:48:41.278Z,58.76
2018-06-03T19:51:10.384Z,58.81
2018-06-03T19:53:39.526Z,60.10
2018-06-03T19:56:08.649Z,60.67
2018-06-03T19:58:38.090Z,61.17
2018-06-03T20:01:07.242Z,60.22
2018-06-03T20:03:36.386Z,60.64
2018-06-03T20:06:05.814Z,61.78
2018-06-03T20:08:34.932Z,61.66
2018-06-03T20:11:04.051Z,60.75
2018-06-03T20:13:33.154Z,60.87
2018-06-03T20:16:02.270Z,61.96
2018-06-03T20:18:31.382Z,62.90
2018-06-03T20:21:00.506Z,63.06
2018-06-03T20:23:29.670Z,62.55
2018-06-03T20:25:58.779Z,63.80
2018-06-03T20:28:27.930Z,63.67
2018-06-03T20:30:57.070Z,63.68
2018-06-03T20:33:26.241Z,63.78
2018-06-03T20:35:55.578Z,63.90
2018-06-03T20:38:24.707Z,64.63
2018-06-03T20:40:53.833Z,63.95
2018-06-03T20:43:22.954Z,63.47
2018-06-03T20:45:52.417Z,64.00
2018-06-03T20:48:21.537Z,64.32
2018-06-03T20:50:50.658Z,64.38
2018-06-03T20:53:19.762Z,66.09
2018-06-03T20:55:48.858Z,66.43
2018-06-03T20:58:17.977Z,65.52
2018-06-03T21:00:47.079Z,66.42
2018-06-03T21:03:16.186Z,65.90
2018-06-03T21:05:45.291Z,66.19
2018-06-03T21:08:14.435Z,65.17
2018-06-03T21:10:43.534Z,65.71
2018-06-03T21:13:12.649Z,65.54
2018-06-03T21:15:41.765Z,65.20
2018-06-03T21:18:10.882Z,65.39
2018-06-03T21:20:39.997Z,66.79
2018-06-03T21:23:09.103Z,65.46
2018-06-03T21:25:38.186Z,65.56
2018-06-03T21:28:07.326Z,64.44
2018-06-03T21:30:36.446Z,64.93
2018-06-03T21:33:05.605Z,65.46
2018-06-03T21:35:34.714Z,65.46
2018-06-03T21:38:03.846Z,65.96
2018-06-03T21:40:32.951Z,65.88
2018-06-03T21:43:02.078Z,65.51
2018-06-03T21:45:31.220Z,65.61
2018-06-03T21:48:00.326Z,66.26
2018-06-03T21:50:29.435Z,66.75
2018-06-03T21:52:58.539Z,66.17
2018-06-03T21:55:27.705Z,66.43
2018-06-03T21:57:56.833Z,66.82
2018-06-03T22:00:25.938Z,66.12
2018-06-03T22:02:55.047Z,67.59
2018-06-03T22:05:24.158Z,67.00
2018-06-03T22:07:54.302Z,67.98
2018-06-03T22:10:23.406Z,69.31
2018-06-03T22:12:52.526Z,69.99
2018-06-03T22:15:21.632Z,68.99
2018-06-03T22:17:50.741Z,68.63
2018-06-03T22:20:19.842Z,68.15
2018-06-03T22:22:48.962Z,68.17
2018-06-03T22:25:18.062Z,68.36
2018-06-03T22:27:47.198Z,69.07
2018-06-03T22:30:16.293Z,70.36
2018-06-03T22:32:45.422Z,70.17
2018-06-03T22:35:14.545Z,69.01
2018-06-03T22:37:43.682Z,69.69
2018-06-03T22:40:12.842Z,69.45
2018-06-03T22:42:41.976Z,68.81
2018-06-03T22:45:11.066Z,68.68
2018-06-03T22:47:40.174Z,69.65
2018-06-03T22:50:09.366Z,69.96
2018-06-03T22:52:38.418Z,69.86
2018-06-03T22:55:07.542Z,69.58
2018-06-03T22:57:47.101Z,70.26
2018-06-03T23:00:25.643Z,69.16
2018-06-03T23:03:00.140Z,70.58
2018-06-03T23:05:29.294Z,70.75
2018-06-03T23:07:58.426Z,71.00
2018-06-03T23:10:27.550Z,70.94
2018-06-03T23:12:56.691Z,70.60
2018-06-03T23:15:25.827Z,70.11
2018-06-03T23:17:54.949Z,71.06
2018-06-03T23:20:24.055Z,70.93
2018-06-03T23:22:53.191Z,72.01
2018-06-03T23:25:22.336Z,71.98
2018-06-03T23:27:51.398Z,70.30
2018-06-03T23:30:20.546Z,70.42
2018-06-03T23:32:49.725Z,71.19
2018-06-03T23:35:18.830Z,71.39
2018-06-03T23:37:47.942Z,71.43
2018-06-03T23:40:17.046Z,72.58
2018-06-03T23:42:46.154Z,72.75
2018-06-03T23:45:15.255Z,71.68
2018-06-03T23:47:44.646Z,72.03
2018-06-03T23:50:13.753Z,71.64
2018-06-03T23:52:42.867Z,71.56
2018-06-03T23:55:12.023Z,72.27
2018-06-03T23:57:41.162Z,71.12
